Elbow Lake, Minnesota
Current Conditions -  °F | °C
As of 12:17 PM on Monday 26 Jan 2015 (Local Time) from KY63 Reporting Station
Scattered Clouds Scattered Clouds  
Wind Chill: -2°   Ceiling: Unl
Heat Index:   Visibility: 10mi
Dew Point:   Wind: 16mph
Humidity: 81%   Direction: 320°NW
Pressure: 29.79"   Gusts: 24mph
Location:  45.99°N, 95.98°W
Report Text: KY63 261817Z AUTO 32014G21KT 10SM SCT031 03/00 A2979 RMK AO2 T00310001
Loading
Personal Weather Stations






























Interactive Weather Map New forecast layout! Learn more

10-Day Weather Forecast

Advertisements
Track Severe Weather on mobile